createdAt,value
2019-02-17T00:00:48.771Z,21.90
2019-02-17T00:03:43.456Z,21.90
2019-02-17T00:06:38.341Z,22.00
2019-02-17T00:09:33.215Z,22.00
2019-02-17T00:12:27.829Z,22.00
2019-02-17T00:15:22.243Z,22.00
2019-02-17T00:18:17.086Z,22.00
2019-02-17T00:21:11.784Z,22.00
2019-02-17T00:24:06.786Z,22.00
2019-02-17T00:27:02.481Z,22.00
2019-02-17T00:29:57.276Z,22.00
2019-02-17T00:32:51.773Z,22.10
2019-02-17T00:35:46.376Z,22.10
2019-02-17T00:38:41.487Z,22.10
2019-02-17T00:41:36.086Z,22.10
2019-02-17T00:44:30.692Z,22.10
2019-02-17T00:47:25.555Z,22.00
2019-02-17T00:50:20.634Z,22.00
2019-02-17T00:53:15.458Z,22.00
2019-02-17T00:56:10.435Z,22.00
2019-02-17T00:59:10.263Z,22.00
2019-02-17T01:02:01.964Z,22.00
2019-02-17T01:04:56.649Z,22.00
2019-02-17T01:07:51.531Z,22.00
2019-02-17T01:10:46.168Z,21.90
2019-02-17T01:13:40.786Z,21.90
2019-02-17T01:16:35.373Z,21.90
2019-02-17T01:19:30.005Z,21.90
2019-02-17T01:22:24.540Z,21.90
2019-02-17T01:25:19.226Z,21.90
2019-02-17T01:28:14.195Z,21.90
2019-02-17T01:31:09.308Z,21.90
2019-02-17T01:34:15.297Z,22.00
2019-02-17T01:37:09.785Z,22.00
2019-02-17T01:40:05.028Z,22.00
2019-02-17T01:42:59.860Z,22.00
2019-02-17T01:45:54.967Z,22.00
2019-02-17T01:48:49.734Z,22.00
2019-02-17T01:51:44.639Z,22.00
2019-02-17T01:54:39.135Z,22.00
2019-02-17T01:57:34.055Z,22.00
2019-02-17T02:00:30.040Z,22.10
2019-02-17T02:03:24.861Z,22.10
2019-02-17T02:06:19.671Z,22.10
2019-02-17T02:09:15.351Z,22.10
2019-02-17T02:12:10.338Z,22.10
2019-02-17T02:15:05.633Z,22.10
2019-02-17T02:18:00.521Z,22.10
2019-02-17T02:20:55.115Z,22.10
2019-02-17T02:23:50.062Z,22.10
2019-02-17T02:26:44.697Z,22.10
2019-02-17T02:29:41.403Z,22.10
2019-02-17T02:32:34.615Z,22.10
2019-02-17T02:35:29.347Z,22.10
2019-02-17T02:38:24.277Z,22.20
2019-02-17T02:41:18.988Z,22.20
2019-02-17T02:44:13.929Z,22.20
2019-02-17T02:47:08.509Z,22.20
2019-02-17T02:50:03.245Z,22.30
2019-02-17T02:52:57.768Z,22.30
2019-02-17T02:55:53.256Z,22.40
2019-02-17T02:58:47.807Z,22.40
2019-02-17T03:01:42.506Z,22.40
2019-02-17T03:04:37.479Z,22.40
2019-02-17T03:07:33.017Z,22.40
2019-02-17T03:10:27.913Z,22.50
2019-02-17T03:13:22.465Z,22.50
2019-02-17T03:16:17.156Z,22.50
2019-02-17T03:19:11.736Z,22.50
2019-02-17T03:22:06.471Z,22.50
2019-02-17T03:25:01.328Z,22.50
2019-02-17T03:27:56.347Z,22.60
2019-02-17T03:30:51.136Z,22.60
2019-02-17T03:33:45.728Z,22.60
2019-02-17T03:36:41.188Z,22.60
2019-02-17T03:39:36.120Z,22.60
2019-02-17T03:42:31.426Z,22.70
2019-02-17T03:45:26.588Z,22.70
2019-02-17T03:48:21.171Z,22.70
2019-02-17T03:51:15.592Z,22.80
2019-02-17T03:54:10.245Z,22.80
2019-02-17T03:57:05.262Z,22.80
2019-02-17T04:00:00.402Z,22.90
2019-02-17T04:02:55.034Z,22.90
2019-02-17T04:05:49.858Z,22.90
2019-02-17T04:08:44.544Z,22.90
2019-02-17T04:11:39.200Z,23.00
2019-02-17T04:14:34.257Z,23.00
2019-02-17T04:17:29.671Z,23.00
2019-02-17T04:20:24.582Z,23.00
2019-02-17T04:23:30.388Z,23.00
2019-02-17T04:26:15.817Z,23.10
2019-02-17T04:29:11.382Z,23.10
2019-02-17T04:32:06.108Z,23.10
2019-02-17T04:35:02.194Z,23.20
2019-02-17T04:37:57.878Z,23.20
2019-02-17T04:40:52.918Z,23.20
2019-02-17T04:43:47.814Z,23.30
2019-02-17T04:46:42.706Z,23.30
2019-02-17T04:49:37.771Z,23.40
2019-02-17T04:52:32.699Z,23.40
2019-02-17T04:55:27.658Z,23.50
2019-02-17T04:58:22.911Z,23.50
2019-02-17T05:01:18.455Z,23.50
2019-02-17T05:04:13.543Z,23.60
2019-02-17T05:07:08.200Z,23.60
2019-02-17T05:10:03.745Z,23.60
2019-02-17T05:12:58.440Z,23.70
2019-02-17T05:15:53.448Z,23.70
2019-02-17T05:18:48.420Z,23.80
2019-02-17T05:21:43.949Z,23.80
2019-02-17T05:24:39.395Z,23.90
2019-02-17T05:27:34.487Z,23.90
2019-02-17T05:30:29.432Z,24.00
2019-02-17T05:33:24.299Z,24.10
2019-02-17T05:36:19.107Z,24.10
2019-02-17T05:39:14.908Z,24.20
2019-02-17T05:42:09.753Z,24.20
2019-02-17T05:45:05.629Z,24.20
2019-02-17T05:48:00.894Z,24.30
2019-02-17T05:50:56.078Z,24.30
2019-02-17T05:53:50.803Z,24.40
2019-02-17T05:56:45.765Z,24.40
2019-02-17T05:59:40.458Z,24.50
2019-02-17T06:02:35.655Z,24.50
2019-02-17T06:05:31.122Z,24.50
2019-02-17T06:08:26.143Z,24.60
2019-02-17T06:11:21.182Z,24.70
2019-02-17T06:14:16.007Z,24.70
2019-02-17T06:17:10.709Z,24.80
2019-02-17T06:20:06.113Z,24.80
2019-02-17T06:23:01.858Z,24.80
2019-02-17T06:25:57.185Z,24.80
2019-02-17T06:28:52.091Z,24.90
2019-02-17T06:31:46.700Z,24.90
2019-02-17T06:34:41.487Z,25.00
2019-02-17T06:37:36.096Z,25.00
2019-02-17T06:40:31.201Z,25.00
2019-02-17T06:43:26.151Z,25.10
2019-02-17T06:46:25.680Z,25.20
2019-02-17T06:49:20.731Z,25.30
2019-02-17T06:52:16.912Z,25.30
2019-02-17T06:55:36.125Z,25.30
2019-02-17T06:58:31.198Z,25.40
2019-02-17T07:01:25.825Z,25.50
2019-02-17T07:04:21.296Z,25.50
2019-02-17T07:07:16.844Z,25.60
2019-02-17T07:10:11.929Z,25.70
2019-02-17T07:13:06.880Z,25.80
2019-02-17T07:16:01.619Z,25.80
2019-02-17T07:18:56.550Z,26.00
2019-02-17T07:21:51.967Z,26.10
2019-02-17T07:24:47.197Z,26.20
2019-02-17T07:27:42.158Z,26.30
2019-02-17T07:30:36.932Z,26.50
2019-02-17T07:33:32.692Z,26.50
2019-02-17T07:36:27.513Z,26.60
2019-02-17T07:39:22.803Z,26.60
2019-02-17T07:42:17.923Z,26.70
2019-02-17T07:45:12.730Z,26.70
2019-02-17T07:48:07.774Z,26.70
2019-02-17T07:51:02.822Z,26.70
2019-02-17T07:53:58.350Z,26.80
2019-02-17T07:56:53.379Z,26.80
2019-02-17T07:59:48.681Z,26.80
2019-02-17T08:02:44.103Z,26.90
2019-02-17T08:05:38.998Z,27.00
2019-02-17T08:08:33.805Z,27.10
2019-02-17T08:11:29.086Z,27.20
2019-02-17T08:14:24.368Z,27.30
2019-02-17T08:17:19.196Z,27.40
2019-02-17T08:20:14.320Z,27.40
2019-02-17T08:23:09.340Z,27.40
2019-02-17T08:26:04.133Z,27.50
2019-02-17T08:28:59.644Z,27.50
2019-02-17T08:31:56.106Z,27.50
2019-02-17T08:34:50.487Z,27.50
2019-02-17T08:37:45.969Z,27.50
2019-02-17T08:40:41.266Z,27.50
2019-02-17T08:43:36.592Z,27.50
2019-02-17T08:46:31.412Z,27.50
2019-02-17T08:49:26.443Z,27.50
2019-02-17T08:52:21.357Z,27.60
2019-02-17T08:55:16.684Z,27.70
2019-02-17T08:58:11.938Z,27.80
2019-02-17T09:01:07.512Z,27.90
2019-02-17T09:04:02.650Z,27.90
2019-02-17T09:06:57.758Z,27.90
2019-02-17T09:09:52.780Z,28.00
2019-02-17T09:12:47.805Z,28.10
2019-02-17T09:15:42.975Z,28.10
2019-02-17T09:18:38.228Z,28.10
2019-02-17T09:21:32.982Z,28.20
2019-02-17T09:24:28.186Z,28.20
2019-02-17T09:27:23.076Z,28.20
2019-02-17T09:30:19.934Z,28.30
2019-02-17T09:33:15.233Z,28.40
2019-02-17T09:36:10.596Z,28.50
2019-02-17T09:39:07.736Z,28.60
2019-02-17T09:42:02.069Z,28.70
2019-02-17T09:44:56.821Z,28.80
2019-02-17T09:47:51.388Z,28.80
2019-02-17T09:50:46.542Z,28.90
2019-02-17T09:53:41.829Z,29.10
2019-02-17T09:56:36.389Z,29.30
2019-02-17T09:59:31.223Z,29.50
2019-02-17T10:02:26.775Z,29.60
2019-02-17T10:05:21.083Z,29.70
2019-02-17T10:08:15.833Z,29.70
2019-02-17T10:11:10.634Z,29.70
2019-02-17T10:14:05.454Z,29.70
2019-02-17T10:17:00.249Z,29.60
2019-02-17T10:19:55.012Z,29.60
2019-02-17T10:22:49.860Z,29.60
2019-02-17T10:25:44.556Z,29.60
2019-02-17T10:28:42.445Z,29.60
2019-02-17T10:31:34.451Z,29.50
2019-02-17T10:34:29.505Z,29.50
2019-02-17T10:37:24.240Z,29.50
2019-02-17T10:40:19.310Z,29.40
2019-02-17T10:43:14.240Z,29.30
2019-02-17T10:46:09.215Z,29.30
2019-02-17T10:49:04.278Z,29.20
2019-02-17T10:51:58.972Z,29.20
2019-02-17T10:54:53.602Z,29.10
2019-02-17T10:57:49.409Z,29.10
2019-02-17T11:00:44.158Z,29.00
2019-02-17T11:03:38.833Z,28.90
2019-02-17T11:06:33.846Z,28.80
2019-02-17T11:09:28.564Z,28.70
2019-02-17T11:12:23.711Z,28.60
2019-02-17T11:15:20.395Z,28.50
2019-02-17T11:18:15.249Z,28.50
2019-02-17T11:21:10.210Z,28.40
2019-02-17T11:24:04.989Z,28.40
2019-02-17T11:26:59.533Z,28.30
2019-02-17T11:29:54.321Z,28.30
2019-02-17T11:32:57.697Z,28.30
2019-02-17T11:35:44.096Z,28.30
2019-02-17T11:38:38.995Z,28.20
2019-02-17T11:41:33.810Z,28.20
2019-02-17T11:44:28.643Z,28.20
2019-02-17T11:47:23.589Z,28.20
2019-02-17T11:50:19.443Z,28.10
2019-02-17T11:53:14.086Z,28.10
2019-02-17T11:56:08.418Z,28.00
2019-02-17T11:59:03.094Z,27.90
2019-02-17T12:01:57.790Z,27.90
2019-02-17T12:04:52.856Z,27.80
2019-02-17T12:07:47.779Z,27.70
2019-02-17T12:10:42.651Z,27.60
2019-02-17T12:13:37.256Z,27.60
2019-02-17T12:16:36.941Z,27.50
2019-02-17T12:19:27.516Z,27.40
2019-02-17T12:22:27.518Z,27.40
2019-02-17T12:25:30.261Z,27.30
2019-02-17T12:28:35.809Z,27.20
2019-02-17T12:31:34.188Z,27.10
2019-02-17T12:34:29.142Z,27.10
2019-02-17T12:37:24.430Z,27.00
2019-02-17T12:40:19.415Z,26.90
2019-02-17T12:43:14.269Z,26.80
2019-02-17T12:46:09.358Z,26.80
2019-02-17T12:49:04.125Z,26.70
2019-02-17T12:51:59.438Z,26.70
2019-02-17T12:54:55.996Z,26.60
2019-02-17T12:57:50.975Z,26.60
2019-02-17T13:00:45.886Z,26.50
2019-02-17T13:03:40.474Z,26.40
2019-02-17T13:06:35.440Z,26.40
2019-02-17T13:09:30.376Z,26.40
2019-02-17T13:12:25.178Z,26.30
2019-02-17T13:15:20.117Z,26.20
2019-02-17T13:18:14.691Z,26.20
2019-02-17T13:21:09.605Z,26.20
2019-02-17T13:24:04.157Z,26.10
2019-02-17T13:26:58.967Z,26.10
2019-02-17T13:29:53.793Z,26.00
2019-02-17T13:32:48.669Z,26.00
2019-02-17T13:35:43.899Z,26.00
2019-02-17T13:38:38.708Z,25.90
2019-02-17T13:41:33.597Z,25.90
2019-02-17T13:44:28.401Z,25.90
2019-02-17T13:47:23.546Z,25.80
2019-02-17T13:50:18.681Z,25.80
2019-02-17T13:53:13.691Z,25.80
2019-02-17T13:56:08.301Z,25.80
2019-02-17T13:59:03.301Z,25.80
2019-02-17T14:01:57.960Z,25.80
2019-02-17T14:04:52.575Z,25.70
2019-02-17T14:07:47.316Z,25.70
2019-02-17T14:10:42.438Z,25.70
2019-02-17T14:13:37.340Z,25.60
2019-02-17T14:16:31.870Z,25.60
2019-02-17T14:19:26.677Z,25.60
2019-02-17T14:22:21.491Z,25.60
2019-02-17T14:25:16.381Z,25.50
2019-02-17T14:28:11.166Z,25.50
2019-02-17T14:31:06.122Z,25.50
2019-02-17T14:34:01.210Z,25.50
2019-02-17T14:36:55.980Z,25.40
2019-02-17T14:39:50.850Z,25.40
2019-02-17T14:42:45.782Z,25.30
2019-02-17T14:45:40.474Z,25.30
2019-02-17T14:48:37.024Z,25.30
2019-02-17T14:51:32.052Z,25.30
2019-02-17T14:54:26.983Z,25.20
2019-02-17T14:57:22.051Z,25.20
2019-02-17T15:00:17.190Z,25.20
2019-02-17T15:03:11.710Z,25.20
2019-02-17T15:06:06.900Z,25.10
2019-02-17T15:09:01.681Z,25.10
2019-02-17T15:11:57.062Z,25.10
2019-02-17T15:14:51.588Z,25.10
2019-02-17T15:17:46.089Z,25.00
2019-02-17T15:20:40.758Z,25.00
2019-02-17T15:23:35.671Z,25.00
2019-02-17T15:26:30.500Z,24.90
2019-02-17T15:29:25.273Z,24.90
2019-02-17T15:32:20.129Z,24.90
2019-02-17T15:35:14.845Z,24.90
2019-02-17T15:38:09.727Z,24.90
2019-02-17T15:41:04.591Z,24.90
2019-02-17T15:43:59.498Z,24.90
2019-02-17T15:46:54.352Z,24.80
2019-02-17T15:49:48.949Z,24.80
2019-02-17T15:52:44.088Z,24.70
2019-02-17T15:55:39.171Z,24.70
2019-02-17T15:58:33.936Z,24.70
2019-02-17T16:01:28.878Z,24.70
2019-02-17T16:04:28.574Z,24.60
2019-02-17T16:07:18.822Z,24.60
2019-02-17T16:10:14.899Z,24.50
2019-02-17T16:13:09.800Z,24.50
2019-02-17T16:16:04.597Z,24.50
2019-02-17T16:18:59.641Z,24.50
2019-02-17T16:21:54.658Z,24.40
2019-02-17T16:24:49.128Z,24.40
2019-02-17T16:27:44.941Z,24.40
2019-02-17T16:30:39.731Z,24.30
2019-02-17T16:33:34.692Z,24.20
2019-02-17T16:36:29.752Z,24.20
2019-02-17T16:39:24.419Z,24.20
2019-02-17T16:42:18.979Z,24.10
2019-02-17T16:45:15.156Z,24.10
2019-02-17T16:48:09.930Z,24.00
2019-02-17T16:51:05.377Z,24.00
2019-02-17T16:54:00.173Z,24.00
2019-02-17T16:56:55.158Z,24.00
2019-02-17T16:59:49.718Z,23.90
2019-02-17T17:02:44.765Z,23.90
2019-02-17T17:05:39.629Z,23.90
2019-02-17T17:08:34.645Z,23.90
2019-02-17T17:11:29.232Z,23.80
2019-02-17T17:14:23.857Z,23.80
2019-02-17T17:17:18.458Z,23.80
2019-02-17T17:20:13.768Z,23.80
2019-02-17T17:23:08.423Z,23.70
2019-02-17T17:26:03.090Z,23.70
2019-02-17T17:28:57.966Z,23.70
2019-02-17T17:31:52.767Z,23.70
2019-02-17T17:34:47.587Z,23.70
2019-02-17T17:37:42.505Z,23.60
2019-02-17T17:40:37.327Z,23.60
2019-02-17T17:43:32.112Z,23.60
2019-02-17T17:46:27.125Z,23.60
2019-02-17T17:49:21.802Z,23.60
2019-02-17T17:52:17.615Z,23.60
2019-02-17T17:55:13.201Z,23.60
2019-02-17T17:58:07.923Z,23.50
2019-02-17T18:01:02.194Z,23.50
2019-02-17T18:03:57.260Z,23.50
2019-02-17T18:06:51.921Z,23.60
2019-02-17T18:09:47.294Z,23.60
2019-02-17T18:12:41.980Z,23.60
2019-02-17T18:15:36.564Z,23.60
2019-02-17T18:18:31.396Z,23.70
2019-02-17T18:21:26.188Z,23.70
2019-02-17T18:24:20.978Z,23.70
2019-02-17T18:27:15.849Z,23.70
2019-02-17T18:30:11.613Z,23.70
2019-02-17T18:33:07.381Z,23.70
2019-02-17T18:36:02.244Z,23.70
2019-02-17T18:38:56.840Z,23.70
2019-02-17T18:41:51.605Z,23.60
2019-02-17T18:44:46.665Z,23.60
2019-02-17T18:47:41.647Z,23.60
2019-02-17T18:50:36.702Z,23.50
2019-02-17T18:53:31.525Z,23.50
2019-02-17T18:56:26.400Z,23.40
2019-02-17T18:59:21.340Z,23.40
2019-02-17T19:02:16.199Z,23.40
2019-02-17T19:05:11.415Z,23.30
2019-02-17T19:08:06.340Z,23.30
2019-02-17T19:11:00.933Z,23.20
2019-02-17T19:13:55.783Z,23.20
2019-02-17T19:16:50.297Z,23.20
2019-02-17T19:19:45.103Z,23.10
2019-02-17T19:22:39.627Z,23.10
2019-02-17T19:25:34.649Z,23.10
2019-02-17T19:28:29.204Z,23.00
2019-02-17T19:31:23.770Z,23.00
2019-02-17T19:34:18.758Z,23.00
2019-02-17T19:37:14.464Z,22.90
2019-02-17T19:40:09.324Z,22.90
2019-02-17T19:43:04.129Z,22.90
2019-02-17T19:45:58.683Z,22.90
2019-02-17T19:48:53.728Z,22.80
2019-02-17T19:51:49.712Z,22.80
2019-02-17T19:54:43.864Z,22.80
2019-02-17T19:57:38.612Z,22.80
2019-02-17T20:00:33.644Z,22.80
2019-02-17T20:03:46.076Z,22.70
2019-02-17T20:06:40.942Z,22.70
2019-02-17T20:09:35.804Z,22.70
2019-02-17T20:12:30.430Z,22.70
2019-02-17T20:15:25.507Z,22.70
2019-02-17T20:18:20.354Z,22.70
2019-02-17T20:21:15.073Z,22.60
2019-02-17T20:24:09.711Z,22.60
2019-02-17T20:27:04.338Z,22.50
2019-02-17T20:29:59.120Z,22.50
2019-02-17T20:32:53.853Z,22.50
2019-02-17T20:35:48.724Z,22.40
2019-02-17T20:38:43.610Z,22.50
2019-02-17T20:41:38.463Z,22.40
2019-02-17T20:44:33.027Z,22.40
2019-02-17T20:47:27.734Z,22.40
2019-02-17T20:50:22.500Z,22.40
2019-02-17T20:53:17.382Z,22.40
2019-02-17T20:56:12.247Z,22.40
2019-02-17T20:59:07.041Z,22.40
2019-02-17T21:02:01.710Z,22.40
2019-02-17T21:04:56.670Z,22.30
2019-02-17T21:07:51.336Z,22.30
2019-02-17T21:10:45.766Z,22.30
2019-02-17T21:13:40.525Z,22.20
2019-02-17T21:16:35.130Z,22.20
2019-02-17T21:19:29.843Z,22.10
2019-02-17T21:22:24.909Z,22.10
2019-02-17T21:25:19.819Z,22.10
2019-02-17T21:28:14.405Z,22.10
2019-02-17T21:31:09.233Z,22.00
2019-02-17T21:34:04.086Z,22.00
2019-02-17T21:36:58.906Z,22.00
2019-02-17T21:39:53.735Z,21.90
2019-02-17T21:42:48.251Z,21.90
2019-02-17T21:45:43.020Z,21.90
2019-02-17T21:48:38.365Z,21.90
2019-02-17T21:51:33.215Z,21.80
2019-02-17T21:54:27.817Z,21.80
2019-02-17T21:57:22.472Z,21.80
2019-02-17T22:00:19.418Z,21.70
2019-02-17T22:03:14.764Z,21.70
2019-02-17T22:06:10.251Z,21.70
2019-02-17T22:09:05.218Z,21.70
2019-02-17T22:12:00.247Z,21.60
2019-02-17T22:14:55.021Z,21.60
2019-02-17T22:17:49.703Z,21.60
2019-02-17T22:20:44.470Z,21.50
2019-02-17T22:23:39.993Z,21.50
2019-02-17T22:26:34.545Z,21.50
2019-02-17T22:29:29.188Z,21.50
2019-02-17T22:32:24.039Z,21.50
2019-02-17T22:35:19.104Z,21.50
2019-02-17T22:38:13.731Z,21.50
2019-02-17T22:41:08.336Z,21.50
2019-02-17T22:44:03.098Z,21.50
2019-02-17T22:46:57.735Z,21.50
2019-02-17T22:49:52.615Z,21.50
2019-02-17T22:52:47.527Z,21.50
2019-02-17T22:55:42.512Z,21.50
2019-02-17T22:58:36.914Z,21.40
2019-02-17T23:01:34.793Z,21.40
2019-02-17T23:04:29.624Z,21.40
2019-02-17T23:07:24.210Z,21.40
2019-02-17T23:10:19.055Z,21.40
2019-02-17T23:13:13.908Z,21.40
2019-02-17T23:16:08.657Z,21.40
2019-02-17T23:19:03.445Z,21.40
2019-02-17T23:21:58.386Z,21.40
2019-02-17T23:24:53.237Z,21.30
2019-02-17T23:27:48.625Z,21.30
2019-02-17T23:30:43.160Z,21.20
2019-02-17T23:33:37.990Z,21.20
2019-02-17T23:36:32.595Z,21.20
2019-02-17T23:39:27.385Z,21.10
2019-02-17T23:42:21.869Z,21.10
2019-02-17T23:45:16.759Z,21.10
2019-02-17T23:48:11.940Z,21.00
2019-02-17T23:51:06.545Z,21.00
2019-02-17T23:54:01.124Z,21.00
2019-02-17T23:56:55.987Z,20.90
2019-02-17T23:59:50.609Z,20.90
